Crandall, TX (75114)

6:41 PM CDT on July 24, 2016 (GMT -0500)
Trinity Meadows | | Change Station

Elev 433 ft 32.61 °N, 96.45 °W | Updated 4 minutes ago

Clear
Clear
103.3 °F
Feels Like 117 °F
N
5.8
Wind Variable Wind from SW

Today
High -- | Low -- °F
--% Chance of Precip.
Yesterday
High -- | Low -- °F
Precip. -- in
Pressure 29.89 in
Visibility 10.0 miles
Clouds Clear
Heat Index 117 °F
Dew Point 74 °F
Humidity 40%
Rainfall 0.00 in
Snow Depth Not available.
6:34 AM 8:29 PM
Waning Gibbous, 72% visible
METAR KHQZ 242250Z AUTO 15005KT 10SM CLR 36/21 A2989
Pressure 29.89 in
Visibility 10.0 miles
Clouds Clear
Heat Index 117 °F
Dew Point 74 °F
Humidity 40%
Rainfall 0.00 in
Snow Depth Not available.
6:34 AM 8:29 PM
Waning Gibbous, 72% visible
METAR KHQZ 242250Z AUTO 15005KT 10SM CLR 36/21 A2989

10-Day Weather Forecast

Almanac

Astronomy

Jul. 24, 2016 Rise Set
Actual Time
Civil Twilight
Nautical Twilight
Astronomical Twilight
Moon
Length of Visible Light
Length of Day
Tomorrow will be .
, % of the Moon is Illuminated

Today's Extremes

State Highs State Lows

Community

WunderPhotos

Upload Photos

1,927,207 photos uploaded!

WunderBlog® & News

Nearby

Air Quality

  Air Quality AQ Index Pollutant
Not available.

Snow Depth

Station Depth Elevation

Earthquake Activity

City Distance Mag. Time & Date
Minimum magnitude displayed is 2.5.

Coastal Water Temperatures

Place Temperature

Stations

Nearby Weather Stations

Station Location Temp. Windchill Dew Point Humidity Wind Precip. Elev Updated Type
                   

Watches & Warnings

There are currently no watches in effect.